sensor_id;sensor_type;location;lat;lon;timestamp;temperature;humidity
25937;DHT22;13733;51.178;4.450;2022-11-25T00:01:51;11.90;99.90
25937;DHT22;13733;51.178;4.450;2022-11-25T00:04:17;11.80;99.90
25937;DHT22;13733;51.178;4.450;2022-11-25T00:06:42;11.70;99.90
25937;DHT22;13733;51.178;4.450;2022-11-25T00:09:10;11.70;99.90
25937;DHT22;13733;51.178;4.450;2022-11-25T00:11:38;11.70;99.90
25937;DHT22;13733;51.178;4.450;2022-11-25T00:14:05;11.60;99.90
25937;DHT22;13733;51.178;4.450;2022-11-25T00:16:30;11.70;99.90
25937;DHT22;13733;51.178;4.450;2022-11-25T00:18:57;11.70;99.90
25937;DHT22;13733;51.178;4.450;2022-11-25T00:21:25;11.90;99.90
25937;DHT22;13733;51.178;4.450;2022-11-25T00:24:02;11.80;99.90
25937;DHT22;13733;51.178;4.450;2022-11-25T00:26:29;11.80;99.90
25937;DHT22;13733;51.178;4.450;2022-11-25T00:28:58;11.80;99.90
25937;DHT22;13733;51.178;4.450;2022-11-25T00:31:29;11.80;99.90
25937;DHT22;13733;51.178;4.450;2022-11-25T00:33:56;12.00;99.90
25937;DHT22;13733;51.178;4.450;2022-11-25T00:36:24;12.00;99.90
25937;DHT22;13733;51.178;4.450;2022-11-25T00:38:55;11.90;99.90
25937;DHT22;13733;51.178;4.450;2022-11-25T00:41:22;11.80;99.90
25937;DHT22;13733;51.178;4.450;2022-11-25T00:44:11;11.90;99.90
25937;DHT22;13733;51.178;4.450;2022-11-25T00:46:56;11.80;99.90
25937;DHT22;13733;51.178;4.450;2022-11-25T00:49:22;11.70;99.90
25937;DHT22;13733;51.178;4.450;2022-11-25T00:51:47;11.70;99.90
25937;DHT22;13733;51.178;4.450;2022-11-25T00:54:13;11.70;99.90
25937;DHT22;13733;51.178;4.450;2022-11-25T00:56:40;11.70;99.90
25937;DHT22;13733;51.178;4.450;2022-11-25T00:59:07;11.60;99.90
25937;DHT22;13733;51.178;4.450;2022-11-25T01:01:33;11.70;99.90
25937;DHT22;13733;51.178;4.450;2022-11-25T01:04:00;11.50;99.90
25937;DHT22;13733;51.178;4.450;2022-11-25T01:06:26;11.20;99.90
25937;DHT22;13733;51.178;4.450;2022-11-25T01:08:52;11.10;99.90
25937;DHT22;13733;51.178;4.450;2022-11-25T01:11:20;11.00;99.90
25937;DHT22;13733;51.178;4.450;2022-11-25T01:13:46;11.00;99.90
25937;DHT22;13733;51.178;4.450;2022-11-25T01:16:16;10.90;99.90
25937;DHT22;13733;51.178;4.450;2022-11-25T01:18:42;10.80;99.90
25937;DHT22;13733;51.178;4.450;2022-11-25T01:21:10;10.80;99.90
25937;DHT22;13733;51.178;4.450;2022-11-25T01:23:37;10.70;99.90
25937;DHT22;13733;51.178;4.450;2022-11-25T01:26:03;10.70;99.90
25937;DHT22;13733;51.178;4.450;2022-11-25T01:28:30;10.50;99.90
25937;DHT22;13733;51.178;4.450;2022-11-25T01:31:04;10.50;99.90
25937;DHT22;13733;51.178;4.450;2022-11-25T01:33:33;10.70;99.90
25937;DHT22;13733;51.178;4.450;2022-11-25T01:36:03;10.70;99.90
25937;DHT22;13733;51.178;4.450;2022-11-25T01:38:30;10.50;99.90
25937;DHT22;13733;51.178;4.450;2022-11-25T01:40:56;10.40;99.90
25937;DHT22;13733;51.178;4.450;2022-11-25T01:43:22;10.30;99.90
25937;DHT22;13733;51.178;4.450;2022-11-25T01:45:48;10.20;99.90
25937;DHT22;13733;51.178;4.450;2022-11-25T01:48:26;10.10;99.90
25937;DHT22;13733;51.178;4.450;2022-11-25T01:50:54;10.10;99.90
25937;DHT22;13733;51.178;4.450;2022-11-25T01:53:21;10.00;99.90
25937;DHT22;13733;51.178;4.450;2022-11-25T01:55:54;10.00;99.90
25937;DHT22;13733;51.178;4.450;2022-11-25T01:58:28;10.00;99.90
25937;DHT22;13733;51.178;4.450;2022-11-25T02:00:55;9.90;99.90
25937;DHT22;13733;51.178;4.450;2022-11-25T02:03:28;9.80;99.90
25937;DHT22;13733;51.178;4.450;2022-11-25T02:06:18;9.80;99.90
25937;DHT22;13733;51.178;4.450;2022-11-25T02:08:49;9.80;99.90
25937;DHT22;13733;51.178;4.450;2022-11-25T02:11:18;9.90;99.90
25937;DHT22;13733;51.178;4.450;2022-11-25T02:13:47;9.90;99.90
25937;DHT22;13733;51.178;4.450;2022-11-25T02:16:13;9.90;99.90
25937;DHT22;13733;51.178;4.450;2022-11-25T02:18:39;9.90;99.90
25937;DHT22;13733;51.178;4.450;2022-11-25T02:21:06;9.80;99.90
25937;DHT22;13733;51.178;4.450;2022-11-25T02:24:03;9.90;99.90
25937;DHT22;13733;51.178;4.450;2022-11-25T02:26:34;9.90;99.90
25937;DHT22;13733;51.178;4.450;2022-11-25T02:29:00;9.90;99.90
25937;DHT22;13733;51.178;4.450;2022-11-25T02:31:25;10.00;99.90
25937;DHT22;13733;51.178;4.450;2022-11-25T02:33:51;10.00;99.90
25937;DHT22;13733;51.178;4.450;2022-11-25T02:36:20;10.00;99.90
25937;DHT22;13733;51.178;4.450;2022-11-25T02:38:56;9.90;99.90
25937;DHT22;13733;51.178;4.450;2022-11-25T02:41:33;9.90;99.90
25937;DHT22;13733;51.178;4.450;2022-11-25T02:44:04;10.00;99.90
25937;DHT22;13733;51.178;4.450;2022-11-25T02:46:31;10.00;99.90
25937;DHT22;13733;51.178;4.450;2022-11-25T02:49:00;10.00;99.90
25937;DHT22;13733;51.178;4.450;2022-11-25T02:51:29;9.80;99.90
25937;DHT22;13733;51.178;4.450;2022-11-25T02:53:57;9.70;99.90
25937;DHT22;13733;51.178;4.450;2022-11-25T02:56:28;9.70;99.90
25937;DHT22;13733;51.178;4.450;2022-11-25T02:58:54;9.70;99.90
25937;DHT22;13733;51.178;4.450;2022-11-25T03:01:19;9.60;99.90
25937;DHT22;13733;51.178;4.450;2022-11-25T03:03:48;9.60;99.90
25937;DHT22;13733;51.178;4.450;2022-11-25T03:06:13;9.50;99.90
25937;DHT22;13733;51.178;4.450;2022-11-25T03:08:39;9.40;99.90
25937;DHT22;13733;51.178;4.450;2022-11-25T03:11:08;9.40;99.90
25937;DHT22;13733;51.178;4.450;2022-11-25T03:13:34;9.30;99.90
25937;DHT22;13733;51.178;4.450;2022-11-25T03:15:59;9.20;99.90
25937;DHT22;13733;51.178;4.450;2022-11-25T03:18:26;9.20;99.90
25937;DHT22;13733;51.178;4.450;2022-11-25T03:20:53;9.20;99.90
25937;DHT22;13733;51.178;4.450;2022-11-25T03:23:19;9.10;99.90
25937;DHT22;13733;51.178;4.450;2022-11-25T03:25:44;9.00;99.90
25937;DHT22;13733;51.178;4.450;2022-11-25T03:28:11;9.00;99.90
25937;DHT22;13733;51.178;4.450;2022-11-25T03:30:37;9.00;99.90
25937;DHT22;13733;51.178;4.450;2022-11-25T03:33:03;8.90;99.90
25937;DHT22;13733;51.178;4.450;2022-11-25T03:35:29;8.90;99.90
25937;DHT22;13733;51.178;4.450;2022-11-25T03:37:55;9.00;99.90
25937;DHT22;13733;51.178;4.450;2022-11-25T03:40:21;9.00;99.90
25937;DHT22;13733;51.178;4.450;2022-11-25T03:42:48;9.00;99.90
25937;DHT22;13733;51.178;4.450;2022-11-25T03:45:15;9.10;99.90
25937;DHT22;13733;51.178;4.450;2022-11-25T03:47:44;9.10;99.90
25937;DHT22;13733;51.178;4.450;2022-11-25T03:50:11;9.00;99.90
25937;DHT22;13733;51.178;4.450;2022-11-25T03:52:38;9.00;99.90
25937;DHT22;13733;51.178;4.450;2022-11-25T03:55:05;9.00;99.90
25937;DHT22;13733;51.178;4.450;2022-11-25T03:57:34;9.00;99.90
25937;DHT22;13733;51.178;4.450;2022-11-25T04:00:00;8.90;99.90
25937;DHT22;13733;51.178;4.450;2022-11-25T04:02:27;8.90;99.90
25937;DHT22;13733;51.178;4.450;2022-11-25T04:04:53;8.90;99.90
25937;DHT22;13733;51.178;4.450;2022-11-25T04:07:19;8.90;99.90
25937;DHT22;13733;51.178;4.450;2022-11-25T04:09:46;8.90;99.90
25937;DHT22;13733;51.178;4.450;2022-11-25T04:12:16;9.00;99.90
25937;DHT22;13733;51.178;4.450;2022-11-25T04:15:05;9.10;99.90
25937;DHT22;13733;51.178;4.450;2022-11-25T04:17:31;9.00;99.90
25937;DHT22;13733;51.178;4.450;2022-11-25T04:19:56;9.10;99.90
25937;DHT22;13733;51.178;4.450;2022-11-25T04:22:23;9.00;99.90
25937;DHT22;13733;51.178;4.450;2022-11-25T04:24:49;8.90;99.90
25937;DHT22;13733;51.178;4.450;2022-11-25T04:27:20;8.90;99.90
25937;DHT22;13733;51.178;4.450;2022-11-25T04:29:46;8.90;99.90
25937;DHT22;13733;51.178;4.450;2022-11-25T04:32:13;9.00;99.90
25937;DHT22;13733;51.178;4.450;2022-11-25T04:34:39;9.10;99.90
25937;DHT22;13733;51.178;4.450;2022-11-25T04:37:06;9.10;99.90
25937;DHT22;13733;51.178;4.450;2022-11-25T04:39:32;9.30;99.90
25937;DHT22;13733;51.178;4.450;2022-11-25T04:42:03;9.30;99.90
25937;DHT22;13733;51.178;4.450;2022-11-25T04:44:47;9.40;99.90
25937;DHT22;13733;51.178;4.450;2022-11-25T04:47:13;9.50;99.90
25937;DHT22;13733;51.178;4.450;2022-11-25T04:49:39;9.50;99.90
25937;DHT22;13733;51.178;4.450;2022-11-25T04:52:05;9.50;99.90
25937;DHT22;13733;51.178;4.450;2022-11-25T04:54:31;9.30;99.90
25937;DHT22;13733;51.178;4.450;2022-11-25T04:56:58;9.30;99.90
25937;DHT22;13733;51.178;4.450;2022-11-25T04:59:25;9.40;99.90
25937;DHT22;13733;51.178;4.450;2022-11-25T05:02:19;9.30;99.90
25937;DHT22;13733;51.178;4.450;2022-11-25T05:04:54;9.30;99.90
25937;DHT22;13733;51.178;4.450;2022-11-25T05:07:23;9.30;99.90
25937;DHT22;13733;51.178;4.450;2022-11-25T05:09:52;9.40;99.90
25937;DHT22;13733;51.178;4.450;2022-11-25T05:12:30;9.40;99.90
25937;DHT22;13733;51.178;4.450;2022-11-25T05:14:56;9.40;99.90
25937;DHT22;13733;51.178;4.450;2022-11-25T05:17:26;9.60;99.90
25937;DHT22;13733;51.178;4.450;2022-11-25T05:19:52;9.70;99.90
25937;DHT22;13733;51.178;4.450;2022-11-25T05:22:29;9.70;99.90
25937;DHT22;13733;51.178;4.450;2022-11-25T05:24:56;9.50;99.90
25937;DHT22;13733;51.178;4.450;2022-11-25T05:27:23;9.40;99.90
25937;DHT22;13733;51.178;4.450;2022-11-25T05:29:50;9.40;99.90
25937;DHT22;13733;51.178;4.450;2022-11-25T05:32:17;9.30;99.90
25937;DHT22;13733;51.178;4.450;2022-11-25T05:34:43;9.30;99.90
25937;DHT22;13733;51.178;4.450;2022-11-25T05:37:11;9.20;99.90
25937;DHT22;13733;51.178;4.450;2022-11-25T05:39:40;9.00;99.90
25937;DHT22;13733;51.178;4.450;2022-11-25T05:42:33;9.00;99.90
25937;DHT22;13733;51.178;4.450;2022-11-25T05:45:02;9.20;99.90
25937;DHT22;13733;51.178;4.450;2022-11-25T05:47:30;9.30;99.90
25937;DHT22;13733;51.178;4.450;2022-11-25T05:49:57;9.50;99.90
25937;DHT22;13733;51.178;4.450;2022-11-25T05:52:23;9.40;99.90
25937;DHT22;13733;51.178;4.450;2022-11-25T05:54:56;9.20;99.90
25937;DHT22;13733;51.178;4.450;2022-11-25T05:57:22;9.20;99.90
25937;DHT22;13733;51.178;4.450;2022-11-25T05:59:54;9.20;99.90
25937;DHT22;13733;51.178;4.450;2022-11-25T06:02:40;9.00;99.90
25937;DHT22;13733;51.178;4.450;2022-11-25T06:05:06;8.90;99.90
25937;DHT22;13733;51.178;4.450;2022-11-25T06:07:32;8.80;99.90
25937;DHT22;13733;51.178;4.450;2022-11-25T06:09:58;8.90;99.90
25937;DHT22;13733;51.178;4.450;2022-11-25T06:12:24;9.00;99.90
25937;DHT22;13733;51.178;4.450;2022-11-25T06:14:50;9.00;99.90
25937;DHT22;13733;51.178;4.450;2022-11-25T06:17:16;8.90;99.90
25937;DHT22;13733;51.178;4.450;2022-11-25T06:19:50;8.90;99.90
25937;DHT22;13733;51.178;4.450;2022-11-25T06:22:16;8.70;99.90
25937;DHT22;13733;51.178;4.450;2022-11-25T06:24:43;8.80;99.90
25937;DHT22;13733;51.178;4.450;2022-11-25T06:27:08;8.80;99.90
25937;DHT22;13733;51.178;4.450;2022-11-25T06:29:35;8.90;99.90
25937;DHT22;13733;51.178;4.450;2022-11-25T06:32:01;8.80;99.90
25937;DHT22;13733;51.178;4.450;2022-11-25T06:34:50;8.90;99.90
25937;DHT22;13733;51.178;4.450;2022-11-25T06:37:34;8.80;99.90
25937;DHT22;13733;51.178;4.450;2022-11-25T06:40:00;8.70;99.90
25937;DHT22;13733;51.178;4.450;2022-11-25T06:42:26;8.70;99.90
25937;DHT22;13733;51.178;4.450;2022-11-25T06:44:52;8.60;99.90
25937;DHT22;13733;51.178;4.450;2022-11-25T06:47:18;8.60;99.90
25937;DHT22;13733;51.178;4.450;2022-11-25T06:49:43;8.60;99.90
25937;DHT22;13733;51.178;4.450;2022-11-25T06:52:09;8.60;99.90
25937;DHT22;13733;51.178;4.450;2022-11-25T06:54:35;8.60;99.90
25937;DHT22;13733;51.178;4.450;2022-11-25T06:57:06;8.70;99.90
25937;DHT22;13733;51.178;4.450;2022-11-25T06:59:32;8.70;99.90
25937;DHT22;13733;51.178;4.450;2022-11-25T07:01:58;8.60;99.90
25937;DHT22;13733;51.178;4.450;2022-11-25T07:04:24;8.50;99.90
25937;DHT22;13733;51.178;4.450;2022-11-25T07:06:50;8.40;99.90
25937;DHT22;13733;51.178;4.450;2022-11-25T07:09:16;8.50;99.90
25937;DHT22;13733;51.178;4.450;2022-11-25T07:11:44;8.40;99.90
25937;DHT22;13733;51.178;4.450;2022-11-25T07:14:14;8.30;99.90
25937;DHT22;13733;51.178;4.450;2022-11-25T07:16:43;8.40;99.90
25937;DHT22;13733;51.178;4.450;2022-11-25T07:19:10;8.50;99.90
25937;DHT22;13733;51.178;4.450;2022-11-25T07:21:36;8.60;99.90
25937;DHT22;13733;51.178;4.450;2022-11-25T07:24:05;8.60;99.90
25937;DHT22;13733;51.178;4.450;2022-11-25T07:26:33;8.50;99.90
25937;DHT22;13733;51.178;4.450;2022-11-25T07:29:02;8.60;99.90
25937;DHT22;13733;51.178;4.450;2022-11-25T07:31:33;8.50;99.90
25937;DHT22;13733;51.178;4.450;2022-11-25T07:34:04;8.40;99.90
25937;DHT22;13733;51.178;4.450;2022-11-25T07:36:31;8.60;99.90
25937;DHT22;13733;51.178;4.450;2022-11-25T07:38:59;8.70;99.90
25937;DHT22;13733;51.178;4.450;2022-11-25T07:41:26;8.60;99.90
25937;DHT22;13733;51.178;4.450;2022-11-25T07:43:57;8.60;99.90
25937;DHT22;13733;51.178;4.450;2022-11-25T07:46:31;8.60;99.90
25937;DHT22;13733;51.178;4.450;2022-11-25T07:49:00;8.70;99.90
25937;DHT22;13733;51.178;4.450;2022-11-25T07:51:29;8.60;99.90
25937;DHT22;13733;51.178;4.450;2022-11-25T07:53:56;8.60;99.90
25937;DHT22;13733;51.178;4.450;2022-11-25T07:56:22;8.60;99.90
25937;DHT22;13733;51.178;4.450;2022-11-25T07:58:48;8.70;99.90
25937;DHT22;13733;51.178;4.450;2022-11-25T08:01:15;8.90;99.90
25937;DHT22;13733;51.178;4.450;2022-11-25T08:03:42;8.90;99.90
25937;DHT22;13733;51.178;4.450;2022-11-25T08:06:10;8.80;99.90
25937;DHT22;13733;51.178;4.450;2022-11-25T08:08:37;8.80;99.90
25937;DHT22;13733;51.178;4.450;2022-11-25T08:11:09;8.90;99.90
25937;DHT22;13733;51.178;4.450;2022-11-25T08:13:35;9.20;99.90
25937;DHT22;13733;51.178;4.450;2022-11-25T08:16:01;9.40;99.90
25937;DHT22;13733;51.178;4.450;2022-11-25T08:18:28;9.30;99.90
25937;DHT22;13733;51.178;4.450;2022-11-25T08:21:01;9.40;99.90
25937;DHT22;13733;51.178;4.450;2022-11-25T08:23:29;9.40;99.90
25937;DHT22;13733;51.178;4.450;2022-11-25T08:25:55;9.40;99.90
25937;DHT22;13733;51.178;4.450;2022-11-25T08:28:21;9.60;99.90
25937;DHT22;13733;51.178;4.450;2022-11-25T08:30:48;9.60;99.90
25937;DHT22;13733;51.178;4.450;2022-11-25T08:33:14;9.60;99.90
25937;DHT22;13733;51.178;4.450;2022-11-25T08:35:39;9.60;99.90
25937;DHT22;13733;51.178;4.450;2022-11-25T08:38:07;9.60;99.90
25937;DHT22;13733;51.178;4.450;2022-11-25T08:40:35;9.80;99.90
25937;DHT22;13733;51.178;4.450;2022-11-25T08:43:01;9.70;99.90
25937;DHT22;13733;51.178;4.450;2022-11-25T08:45:28;9.70;99.90
25937;DHT22;13733;51.178;4.450;2022-11-25T08:47:54;9.70;99.90
25937;DHT22;13733;51.178;4.450;2022-11-25T08:50:20;9.60;99.90
25937;DHT22;13733;51.178;4.450;2022-11-25T08:52:46;9.60;99.90
25937;DHT22;13733;51.178;4.450;2022-11-25T08:55:12;9.70;99.90
25937;DHT22;13733;51.178;4.450;2022-11-25T08:57:37;9.90;99.90
25937;DHT22;13733;51.178;4.450;2022-11-25T09:00:05;9.80;99.90
25937;DHT22;13733;51.178;4.450;2022-11-25T09:02:30;9.80;99.90
25937;DHT22;13733;51.178;4.450;2022-11-25T09:04:56;10.00;99.90
25937;DHT22;13733;51.178;4.450;2022-11-25T09:07:22;10.00;99.90
25937;DHT22;13733;51.178;4.450;2022-11-25T09:09:48;9.90;99.90
25937;DHT22;13733;51.178;4.450;2022-11-25T09:12:14;10.00;99.90
25937;DHT22;13733;51.178;4.450;2022-11-25T09:14:40;10.20;99.90
25937;DHT22;13733;51.178;4.450;2022-11-25T09:17:12;10.10;99.90
25937;DHT22;13733;51.178;4.450;2022-11-25T09:19:39;10.20;99.90
25937;DHT22;13733;51.178;4.450;2022-11-25T09:22:06;10.00;99.90
25937;DHT22;13733;51.178;4.450;2022-11-25T09:24:33;10.10;99.90
25937;DHT22;13733;51.178;4.450;2022-11-25T09:26:59;10.20;99.90
25937;DHT22;13733;51.178;4.450;2022-11-25T09:29:25;10.10;99.90
25937;DHT22;13733;51.178;4.450;2022-11-25T09:31:52;10.00;99.90
25937;DHT22;13733;51.178;4.450;2022-11-25T09:34:18;10.20;99.90
25937;DHT22;13733;51.178;4.450;2022-11-25T09:36:44;10.10;99.90
25937;DHT22;13733;51.178;4.450;2022-11-25T09:39:09;10.00;99.90
25937;DHT22;13733;51.178;4.450;2022-11-25T09:47:50;10.00;99.90
25937;DHT22;13733;51.178;4.450;2022-11-25T09:55:20;10.20;99.90
25937;DHT22;13733;51.178;4.450;2022-11-25T10:00:40;10.50;99.90
25937;DHT22;13733;51.178;4.450;2022-11-25T10:03:23;10.70;99.90
25937;DHT22;13733;51.178;4.450;2022-11-25T10:06:02;10.80;99.90
25937;DHT22;13733;51.178;4.450;2022-11-25T10:08:37;11.00;99.90
25937;DHT22;13733;51.178;4.450;2022-11-25T10:13:59;11.20;99.90
25937;DHT22;13733;51.178;4.450;2022-11-25T10:16:33;11.20;99.90
25937;DHT22;13733;51.178;4.450;2022-11-25T10:21:45;11.60;99.90
25937;DHT22;13733;51.178;4.450;2022-11-25T10:24:13;11.80;99.90
25937;DHT22;13733;51.178;4.450;2022-11-25T10:26:42;12.00;99.90
25937;DHT22;13733;51.178;4.450;2022-11-25T10:29:28;12.10;99.90
25937;DHT22;13733;51.178;4.450;2022-11-25T10:32:23;12.30;99.90
25937;DHT22;13733;51.178;4.450;2022-11-25T10:35:02;12.30;99.90
25937;DHT22;13733;51.178;4.450;2022-11-25T10:37:39;12.50;99.90
25937;DHT22;13733;51.178;4.450;2022-11-25T10:40:15;12.70;99.90
25937;DHT22;13733;51.178;4.450;2022-11-25T10:42:42;12.90;99.90
25937;DHT22;13733;51.178;4.450;2022-11-25T10:45:09;13.10;99.90
25937;DHT22;13733;51.178;4.450;2022-11-25T10:55:33;13.40;99.90
25937;DHT22;13733;51.178;4.450;2022-11-25T10:58:26;13.50;99.90
25937;DHT22;13733;51.178;4.450;2022-11-25T11:01:21;13.90;99.90
25937;DHT22;13733;51.178;4.450;2022-11-25T11:04:03;14.00;99.90
25937;DHT22;13733;51.178;4.450;2022-11-25T11:06:40;14.10;99.90
25937;DHT22;13733;51.178;4.450;2022-11-25T11:09:33;14.30;99.90
25937;DHT22;13733;51.178;4.450;2022-11-25T11:12:12;14.60;99.90
25937;DHT22;13733;51.178;4.450;2022-11-25T11:14:39;14.90;99.90
25937;DHT22;13733;51.178;4.450;2022-11-25T11:17:05;14.90;99.90
25937;DHT22;13733;51.178;4.450;2022-11-25T11:19:31;15.10;99.90
25937;DHT22;13733;51.178;4.450;2022-11-25T11:22:13;15.30;99.90
25937;DHT22;13733;51.178;4.450;2022-11-25T11:24:39;15.70;99.90
25937;DHT22;13733;51.178;4.450;2022-11-25T11:27:23;15.80;99.90
25937;DHT22;13733;51.178;4.450;2022-11-25T11:32:35;15.90;99.90
25937;DHT22;13733;51.178;4.450;2022-11-25T11:35:07;15.90;99.90
25937;DHT22;13733;51.178;4.450;2022-11-25T11:37:44;16.00;99.90
25937;DHT22;13733;51.178;4.450;2022-11-25T11:51:31;15.90;99.90
25937;DHT22;13733;51.178;4.450;2022-11-25T11:54:06;16.10;99.90
25937;DHT22;13733;51.178;4.450;2022-11-25T11:56:39;16.80;99.90
25937;DHT22;13733;51.178;4.450;2022-11-25T12:04:54;16.70;99.90
25937;DHT22;13733;51.178;4.450;2022-11-25T12:10:24;17.40;99.90
25937;DHT22;13733;51.178;4.450;2022-11-25T12:15:36;18.20;99.90
25937;DHT22;13733;51.178;4.450;2022-11-25T12:21:02;19.20;99.90
25937;DHT22;13733;51.178;4.450;2022-11-25T12:26:02;20.40;98.70
25937;DHT22;13733;51.178;4.450;2022-11-25T12:28:39;19.90;98.10
25937;DHT22;13733;51.178;4.450;2022-11-25T12:36:33;19.50;99.50
25937;DHT22;13733;51.178;4.450;2022-11-25T12:39:05;19.60;98.60
25937;DHT22;13733;51.178;4.450;2022-11-25T12:41:49;19.20;99.70
25937;DHT22;13733;51.178;4.450;2022-11-25T12:45:04;19.50;99.50
25937;DHT22;13733;51.178;4.450;2022-11-25T12:47:10;19.90;98.80
25937;DHT22;13733;51.178;4.450;2022-11-25T12:49:47;20.70;97.30
25937;DHT22;13733;51.178;4.450;2022-11-25T12:55:25;20.70;95.80
25937;DHT22;13733;51.178;4.450;2022-11-25T12:58:08;21.00;96.40
25937;DHT22;13733;51.178;4.450;2022-11-25T13:17:45;16.30;99.90
25937;DHT22;13733;51.178;4.450;2022-11-25T13:25:43;15.20;99.90
25937;DHT22;13733;51.178;4.450;2022-11-25T13:30:53;14.70;99.90
25937;DHT22;13733;51.178;4.450;2022-11-25T13:35:54;14.80;99.90
25937;DHT22;13733;51.178;4.450;2022-11-25T13:40:56;14.70;99.90
25937;DHT22;13733;51.178;4.450;2022-11-25T13:43:22;14.70;99.90
25937;DHT22;13733;51.178;4.450;2022-11-25T13:45:48;14.60;99.90
25937;DHT22;13733;51.178;4.450;2022-11-25T13:48:27;14.70;99.90
25937;DHT22;13733;51.178;4.450;2022-11-25T13:51:18;14.70;99.90
25937;DHT22;13733;51.178;4.450;2022-11-25T13:53:56;14.50;99.90
25937;DHT22;13733;51.178;4.450;2022-11-25T13:56:35;14.30;99.90
25937;DHT22;13733;51.178;4.450;2022-11-25T14:01:37;14.00;99.90
25937;DHT22;13733;51.178;4.450;2022-11-25T14:04:07;14.00;99.90
25937;DHT22;13733;51.178;4.450;2022-11-25T14:06:58;14.10;99.90
25937;DHT22;13733;51.178;4.450;2022-11-25T14:15:25;14.30;99.90
25937;DHT22;13733;51.178;4.450;2022-11-25T14:21:02;14.00;99.90
25937;DHT22;13733;51.178;4.450;2022-11-25T14:26:32;14.00;99.90
25937;DHT22;13733;51.178;4.450;2022-11-25T14:29:05;14.10;99.90
25937;DHT22;13733;51.178;4.450;2022-11-25T14:32:01;14.00;99.90
25937;DHT22;13733;51.178;4.450;2022-11-25T14:34:47;13.90;99.90
25937;DHT22;13733;51.178;4.450;2022-11-25T14:37:19;13.90;99.90
25937;DHT22;13733;51.178;4.450;2022-11-25T14:40:03;13.80;99.90
25937;DHT22;13733;51.178;4.450;2022-11-25T14:42:39;13.70;99.90
25937;DHT22;13733;51.178;4.450;2022-11-25T14:45:20;13.80;99.90
25937;DHT22;13733;51.178;4.450;2022-11-25T14:47:47;13.70;99.90
25937;DHT22;13733;51.178;4.450;2022-11-25T14:50:14;13.60;99.90
25937;DHT22;13733;51.178;4.450;2022-11-25T14:52:40;13.60;99.90
25937;DHT22;13733;51.178;4.450;2022-11-25T14:55:09;13.60;99.90
25937;DHT22;13733;51.178;4.450;2022-11-25T14:57:42;13.70;99.90
25937;DHT22;13733;51.178;4.450;2022-11-25T15:00:15;13.60;99.90
25937;DHT22;13733;51.178;4.450;2022-11-25T15:03:01;13.50;99.90
25937;DHT22;13733;51.178;4.450;2022-11-25T15:05:33;13.50;99.90
25937;DHT22;13733;51.178;4.450;2022-11-25T15:08:02;13.50;99.90
25937;DHT22;13733;51.178;4.450;2022-11-25T15:10:30;13.40;99.90
25937;DHT22;13733;51.178;4.450;2022-11-25T15:12:58;13.30;99.90
25937;DHT22;13733;51.178;4.450;2022-11-25T15:15:25;13.20;99.90
25937;DHT22;13733;51.178;4.450;2022-11-25T15:17:51;13.10;99.90
25937;DHT22;13733;51.178;4.450;2022-11-25T15:20:20;13.00;99.90
25937;DHT22;13733;51.178;4.450;2022-11-25T15:22:48;13.00;99.90
25937;DHT22;13733;51.178;4.450;2022-11-25T15:25:15;13.00;99.90
25937;DHT22;13733;51.178;4.450;2022-11-25T15:27:50;12.90;99.90
25937;DHT22;13733;51.178;4.450;2022-11-25T15:30:22;12.90;99.90
25937;DHT22;13733;51.178;4.450;2022-11-25T15:32:49;12.80;99.90
25937;DHT22;13733;51.178;4.450;2022-11-25T15:35:20;12.90;99.90
25937;DHT22;13733;51.178;4.450;2022-11-25T15:37:47;12.90;99.90
25937;DHT22;13733;51.178;4.450;2022-11-25T15:40:33;12.80;99.90
25937;DHT22;13733;51.178;4.450;2022-11-25T15:43:18;12.80;99.90
25937;DHT22;13733;51.178;4.450;2022-11-25T15:45:46;12.70;99.90
25937;DHT22;13733;51.178;4.450;2022-11-25T15:48:27;12.60;99.90
25937;DHT22;13733;51.178;4.450;2022-11-25T15:53:49;12.60;99.90
25937;DHT22;13733;51.178;4.450;2022-11-25T15:56:21;12.60;99.90
25937;DHT22;13733;51.178;4.450;2022-11-25T15:58:48;12.60;99.90
25937;DHT22;13733;51.178;4.450;2022-11-25T16:03:44;12.70;99.90
25937;DHT22;13733;51.178;4.450;2022-11-25T16:06:24;12.50;99.90
25937;DHT22;13733;51.178;4.450;2022-11-25T16:08:58;12.40;99.90
25937;DHT22;13733;51.178;4.450;2022-11-25T16:11:25;12.40;99.90
25937;DHT22;13733;51.178;4.450;2022-11-25T16:14:24;12.20;99.90
25937;DHT22;13733;51.178;4.450;2022-11-25T16:16:56;12.20;99.90
25937;DHT22;13733;51.178;4.450;2022-11-25T16:19:29;12.10;99.90
25937;DHT22;13733;51.178;4.450;2022-11-25T16:22:02;12.10;99.90
25937;DHT22;13733;51.178;4.450;2022-11-25T16:24:32;12.10;99.90
25937;DHT22;13733;51.178;4.450;2022-11-25T16:27:02;11.90;99.90
25937;DHT22;13733;51.178;4.450;2022-11-25T16:30:06;11.80;99.90
25937;DHT22;13733;51.178;4.450;2022-11-25T16:32:25;11.60;99.90
25937;DHT22;13733;51.178;4.450;2022-11-25T16:34:53;11.50;99.90
25937;DHT22;13733;51.178;4.450;2022-11-25T16:37:21;11.50;99.90
25937;DHT22;13733;51.178;4.450;2022-11-25T16:39:48;11.50;99.90
25937;DHT22;13733;51.178;4.450;2022-11-25T16:42:17;11.50;99.90
25937;DHT22;13733;51.178;4.450;2022-11-25T16:44:46;11.40;99.90
25937;DHT22;13733;51.178;4.450;2022-11-25T16:47:13;11.30;99.90
25937;DHT22;13733;51.178;4.450;2022-11-25T16:49:38;11.30;99.90
25937;DHT22;13733;51.178;4.450;2022-11-25T16:52:04;11.30;99.90
25937;DHT22;13733;51.178;4.450;2022-11-25T16:54:30;11.30;99.90
25937;DHT22;13733;51.178;4.450;2022-11-25T16:56:57;11.30;99.90
25937;DHT22;13733;51.178;4.450;2022-11-25T16:59:32;11.10;99.90
25937;DHT22;13733;51.178;4.450;2022-11-25T17:02:00;11.00;99.90
25937;DHT22;13733;51.178;4.450;2022-11-25T17:04:26;11.10;99.90
25937;DHT22;13733;51.178;4.450;2022-11-25T17:06:54;11.00;99.90
25937;DHT22;13733;51.178;4.450;2022-11-25T17:09:20;11.00;99.90
25937;DHT22;13733;51.178;4.450;2022-11-25T17:11:49;11.00;99.90
25937;DHT22;13733;51.178;4.450;2022-11-25T17:14:26;10.90;99.90
25937;DHT22;13733;51.178;4.450;2022-11-25T17:16:52;10.90;99.90
25937;DHT22;13733;51.178;4.450;2022-11-25T17:19:19;10.80;99.90
25937;DHT22;13733;51.178;4.450;2022-11-25T17:21:45;10.60;99.90
25937;DHT22;13733;51.178;4.450;2022-11-25T17:24:19;10.50;99.90
25937;DHT22;13733;51.178;4.450;2022-11-25T17:26:49;10.30;99.90
25937;DHT22;13733;51.178;4.450;2022-11-25T17:29:19;10.30;99.90
25937;DHT22;13733;51.178;4.450;2022-11-25T17:31:46;10.30;99.90
25937;DHT22;13733;51.178;4.450;2022-11-25T17:34:14;10.30;99.90
25937;DHT22;13733;51.178;4.450;2022-11-25T17:36:41;10.30;99.90
25937;DHT22;13733;51.178;4.450;2022-11-25T17:39:11;10.40;99.90
25937;DHT22;13733;51.178;4.450;2022-11-25T17:41:46;10.40;99.90
25937;DHT22;13733;51.178;4.450;2022-11-25T17:44:25;10.40;99.90
25937;DHT22;13733;51.178;4.450;2022-11-25T17:46:56;10.40;99.90
25937;DHT22;13733;51.178;4.450;2022-11-25T17:49:22;10.50;99.90
25937;DHT22;13733;51.178;4.450;2022-11-25T17:51:48;10.40;99.90
25937;DHT22;13733;51.178;4.450;2022-11-25T17:54:14;10.20;99.90